createdAt,value
2022-12-23T00:00:37.829Z,11.27
2022-12-23T00:01:39.754Z,11.25
2022-12-23T00:02:41.652Z,13.57
2022-12-23T00:03:43.632Z,12.63
2022-12-23T00:04:45.481Z,11.38
2022-12-23T00:05:47.361Z,12.85
2022-12-23T00:06:49.069Z,10.75
2022-12-23T00:07:50.898Z,9.77
2022-12-23T00:08:58.857Z,8.93
2022-12-23T00:10:01.016Z,8.10
2022-12-23T00:11:05.788Z,7.45
2022-12-23T00:12:26.335Z,9.25
2022-12-23T00:13:46.683Z,7.78
2022-12-23T00:15:06.689Z,8.38
2022-12-23T00:16:11.373Z,8.75
2022-12-23T00:17:22.637Z,10.38
2022-12-23T00:18:24.931Z,8.32
2022-12-23T00:19:26.627Z,10.35
2022-12-23T00:20:28.344Z,9.52
2022-12-23T00:21:30.132Z,13.65
2022-12-23T00:22:50.859Z,15.68
2022-12-23T00:23:52.658Z,12.98
2022-12-23T00:24:54.358Z,13.68
2022-12-23T00:25:56.099Z,11.50
2022-12-23T00:26:57.794Z,10.50
2022-12-23T00:28:02.509Z,10.65
2022-12-23T00:29:04.220Z,12.80
2022-12-23T00:30:07.727Z,11.13
2022-12-23T00:31:10.047Z,11.02
2022-12-23T00:32:11.824Z,9.48
2022-12-23T00:33:15.510Z,9.52
2022-12-23T00:34:17.463Z,9.80
2022-12-23T00:35:19.227Z,10.15
2022-12-23T00:36:25.703Z,10.23
2022-12-23T00:37:30.681Z,9.65
2022-12-23T00:38:51.251Z,9.88
2022-12-23T00:40:11.926Z,10.45
2022-12-23T00:41:34.908Z,10.47
2022-12-23T00:42:55.067Z,11.13
2022-12-23T00:43:57.153Z,10.95
2022-12-23T00:45:15.862Z,10.43
2022-12-23T00:46:18.170Z,9.50
2022-12-23T00:47:38.343Z,10.95
2022-12-23T00:48:58.947Z,11.30
2022-12-23T00:50:00.645Z,11.18
2022-12-23T00:51:02.529Z,11.38
2022-12-23T00:52:05.901Z,11.30
2022-12-23T00:53:07.916Z,11.90
2022-12-23T00:54:09.627Z,11.27
2022-12-23T00:55:11.323Z,11.32
2022-12-23T00:56:13.060Z,10.43
2022-12-23T00:57:14.786Z,10.88
2022-12-23T00:58:20.808Z,9.32
2022-12-23T00:59:22.525Z,10.40
2022-12-23T01:00:47.508Z,9.00
2022-12-23T01:02:08.340Z,8.85
2022-12-23T01:03:33.343Z,7.50
2022-12-23T01:04:53.960Z,7.60
2022-12-23T01:05:59.026Z,8.57
2022-12-23T01:07:01.397Z,6.90
2022-12-23T01:08:11.431Z,8.43
2022-12-23T01:09:13.492Z,7.75
2022-12-23T01:10:15.305Z,7.93
2022-12-23T01:11:17.043Z,7.80
2022-12-23T01:12:18.917Z,7.80
2022-12-23T01:13:21.165Z,8.35
2022-12-23T01:14:23.047Z,7.65
2022-12-23T01:15:24.813Z,8.50
2022-12-23T01:16:26.648Z,7.97
2022-12-23T01:17:28.368Z,7.80
2022-12-23T01:18:30.161Z,9.07
2022-12-23T01:19:32.192Z,8.70
2022-12-23T01:20:33.974Z,9.88
2022-12-23T01:21:35.761Z,8.95
2022-12-23T01:22:37.464Z,8.63
2022-12-23T01:23:39.261Z,9.80
2022-12-23T01:24:41.005Z,9.60
2022-12-23T01:25:42.744Z,10.30
2022-12-23T01:26:44.564Z,10.85
2022-12-23T01:27:46.258Z,10.98
2022-12-23T01:28:48.003Z,11.55
2022-12-23T01:29:49.724Z,11.50
2022-12-23T01:30:51.466Z,13.02
2022-12-23T01:31:53.289Z,12.90
2022-12-23T01:32:55.023Z,14.77
2022-12-23T01:33:57.528Z,14.35
2022-12-23T01:34:59.306Z,13.05
2022-12-23T01:36:06.690Z,13.98
2022-12-23T01:37:08.392Z,13.60
2022-12-23T01:38:10.107Z,14.95
2022-12-23T01:39:11.917Z,14.77
2022-12-23T01:40:13.714Z,14.32
2022-12-23T01:41:39.261Z,15.82
2022-12-23T01:42:44.031Z,15.85
2022-12-23T01:43:51.251Z,19.60
2022-12-23T01:44:56.629Z,17.75
2022-12-23T01:45:58.377Z,18.65
2022-12-23T01:47:00.123Z,18.40
2022-12-23T01:48:20.480Z,16.83
2022-12-23T01:49:22.227Z,18.08
2022-12-23T01:50:30.839Z,18.00
2022-12-23T01:51:33.185Z,17.85
2022-12-23T01:52:40.042Z,18.50
2022-12-23T01:53:47.595Z,20.23
2022-12-23T01:54:49.539Z,19.60
2022-12-23T01:55:55.073Z,20.23
2022-12-23T01:56:58.043Z,20.40
2022-12-23T01:58:13.561Z,20.17
2022-12-23T01:59:34.391Z,17.15
2022-12-23T02:00:54.738Z,19.40
2022-12-23T02:02:15.568Z,21.17
2022-12-23T02:03:35.912Z,20.50
2022-12-23T02:04:37.677Z,19.17
2022-12-23T02:05:40.353Z,20.77
2022-12-23T02:07:02.515Z,19.23
2022-12-23T02:08:22.887Z,21.10
2022-12-23T02:09:34.997Z,20.42
2022-12-23T02:11:06.432Z,21.08
2022-12-23T02:12:38.490Z,18.42
2022-12-23T02:14:30.729Z,18.17
2022-12-23T02:15:55.066Z,19.90
2022-12-23T02:17:10.168Z,20.50
2022-12-23T02:18:27.121Z,20.38
2022-12-23T02:19:56.431Z,20.60
2022-12-23T02:21:00.851Z,21.33
2022-12-23T02:22:38.400Z,19.98
2022-12-23T02:24:04.697Z,20.67
2022-12-23T02:25:15.274Z,19.77
2022-12-23T02:26:53.397Z,18.80
2022-12-23T02:27:57.788Z,19.88
2022-12-23T02:29:23.628Z,19.05
2022-12-23T02:30:27.575Z,19.98
2022-12-23T02:31:35.203Z,18.48
2022-12-23T02:33:16.883Z,17.05
2022-12-23T02:34:42.913Z,18.55
2022-12-23T02:35:58.697Z,19.38
2022-12-23T02:37:09.551Z,18.77
2022-12-23T02:38:41.359Z,18.42
2022-12-23T02:41:24.031Z,20.40
2022-12-23T02:42:45.400Z,17.88
2022-12-23T02:44:10.842Z,19.50
2022-12-23T02:45:19.045Z,17.30
2022-12-23T02:46:35.786Z,18.77
2022-12-23T02:47:50.796Z,18.15
2022-12-23T02:49:02.420Z,19.55
2022-12-23T02:50:11.211Z,21.33
2022-12-23T02:51:15.306Z,22.05
2022-12-23T02:52:21.074Z,22.35
2022-12-23T02:53:29.480Z,23.27
2022-12-23T02:54:44.977Z,21.50
2022-12-23T02:55:50.205Z,23.33
2022-12-23T02:56:54.120Z,20.40
2022-12-23T02:57:57.985Z,21.75
2022-12-23T02:59:08.443Z,25.33
2022-12-23T03:00:11.294Z,34.13
2022-12-23T03:01:16.236Z,29.23
2022-12-23T03:02:18.606Z,27.73
2022-12-23T03:03:22.438Z,26.33
2022-12-23T03:04:24.266Z,26.15
2022-12-23T03:05:32.828Z,21.23
2022-12-23T03:06:40.768Z,21.75
2022-12-23T03:07:43.654Z,22.35
2022-12-23T03:08:45.925Z,23.10
2022-12-23T03:10:08.996Z,24.05
2022-12-23T03:11:13.652Z,20.10
2022-12-23T03:12:39.626Z,23.67
2022-12-23T03:14:05.883Z,18.75
2022-12-23T03:15:13.597Z,18.80
2022-12-23T03:16:27.943Z,18.10
2022-12-23T03:17:57.900Z,16.70
2022-12-23T03:19:21.367Z,18.20
2022-12-23T03:20:35.242Z,17.00
2022-12-23T03:21:39.862Z,17.27
2022-12-23T03:22:59.196Z,17.83
2022-12-23T03:24:35.104Z,15.73
2022-12-23T03:25:43.644Z,16.15
2022-12-23T03:27:01.994Z,15.50
2022-12-23T03:28:27.480Z,14.38
2022-12-23T03:29:35.708Z,15.63
2022-12-23T03:30:41.471Z,14.07
2022-12-23T03:31:45.697Z,15.48
2022-12-23T03:32:49.944Z,16.80
2022-12-23T03:33:58.438Z,14.43
2022-12-23T03:35:02.768Z,15.38
2022-12-23T03:36:13.653Z,16.48
2022-12-23T03:37:17.967Z,18.83
2022-12-23T03:38:21.951Z,19.15
2022-12-23T03:39:31.295Z,17.77
2022-12-23T03:40:38.877Z,17.77
2022-12-23T03:41:44.125Z,18.75
2022-12-23T03:42:52.416Z,18.90
2022-12-23T03:44:09.707Z,18.52
2022-12-23T03:45:38.089Z,18.45
2022-12-23T03:46:46.929Z,19.55
2022-12-23T03:48:16.635Z,19.02
2022-12-23T03:49:28.557Z,19.55
2022-12-23T03:50:31.534Z,17.85
2022-12-23T03:51:39.746Z,16.58
2022-12-23T03:52:51.700Z,17.65
2022-12-23T03:54:09.579Z,17.30
2022-12-23T03:55:17.954Z,17.45
2022-12-23T03:56:31.055Z,17.45
2022-12-23T03:57:41.477Z,17.70
2022-12-23T03:58:45.502Z,19.40
2022-12-23T03:59:50.789Z,20.63
2022-12-23T04:01:18.176Z,17.75
2022-12-23T04:02:23.654Z,16.40
2022-12-23T04:03:42.159Z,20.20
2022-12-23T04:04:51.089Z,17.02
2022-12-23T04:05:57.641Z,20.00
2022-12-23T04:07:17.784Z,17.75
2022-12-23T04:08:27.484Z,20.45
2022-12-23T04:09:29.584Z,20.45
2022-12-23T04:10:32.001Z,19.75
2022-12-23T04:11:35.824Z,22.83
2022-12-23T04:12:39.425Z,21.20
2022-12-23T04:13:41.200Z,22.13
2022-12-23T04:14:48.926Z,21.75
2022-12-23T04:15:50.790Z,22.33
2022-12-23T04:16:58.462Z,21.83
2022-12-23T04:18:00.356Z,21.17
2022-12-23T04:19:02.113Z,20.35
2022-12-23T04:20:04.347Z,21.15
2022-12-23T04:21:06.142Z,21.00
2022-12-23T04:22:07.899Z,20.27
2022-12-23T04:23:09.587Z,18.80
2022-12-23T04:24:11.413Z,19.80
2022-12-23T04:25:14.845Z,17.33
2022-12-23T04:26:16.577Z,18.48
2022-12-23T04:27:18.319Z,18.70
2022-12-23T04:28:20.528Z,18.80
2022-12-23T04:29:22.273Z,19.50
2022-12-23T04:30:28.105Z,20.75
2022-12-23T04:31:35.265Z,24.58
2022-12-23T04:32:37.319Z,24.73
2022-12-23T04:33:39.060Z,24.25
2022-12-23T04:34:40.818Z,24.83
2022-12-23T04:35:42.540Z,23.48
2022-12-23T04:36:44.271Z,23.65
2022-12-23T04:37:45.997Z,22.58
2022-12-23T04:38:47.711Z,24.42
2022-12-23T04:39:49.512Z,23.25
2022-12-23T04:40:51.310Z,21.55
2022-12-23T04:41:53.072Z,23.35
2022-12-23T04:42:54.801Z,21.90
2022-12-23T04:43:56.622Z,23.25
2022-12-23T04:44:58.511Z,24.42
2022-12-23T04:46:00.283Z,22.70
2022-12-23T04:47:02.047Z,23.83
2022-12-23T04:48:03.986Z,21.85
2022-12-23T04:49:05.760Z,20.98
2022-12-23T04:50:08.218Z,16.92
2022-12-23T04:51:09.997Z,17.15
2022-12-23T04:52:11.764Z,17.05
2022-12-23T04:53:13.497Z,16.25
2022-12-23T04:54:15.707Z,16.52
2022-12-23T04:55:17.691Z,16.10
2022-12-23T04:56:19.505Z,13.93
2022-12-23T04:57:21.263Z,15.60
2022-12-23T04:58:25.134Z,16.10
2022-12-23T04:59:26.867Z,15.73
2022-12-23T05:00:31.509Z,16.15
2022-12-23T05:01:35.876Z,15.88
2022-12-23T05:02:37.772Z,16.00
2022-12-23T05:03:40.038Z,19.92
2022-12-23T05:04:42.108Z,27.05
2022-12-23T05:05:44.796Z,26.65
2022-12-23T05:06:46.520Z,48.10
2022-12-23T05:07:51.827Z,52.17
2022-12-23T05:08:53.538Z,40.17
2022-12-23T05:09:55.298Z,37.08
2022-12-23T05:10:57.071Z,35.67
2022-12-23T05:11:58.771Z,38.78
2022-12-23T05:13:00.517Z,36.35
2022-12-23T05:14:02.957Z,44.70
2022-12-23T05:15:05.011Z,40.80
2022-12-23T05:16:07.242Z,40.25
2022-12-23T05:17:09.092Z,39.42
2022-12-23T05:18:11.045Z,33.83
2022-12-23T05:19:12.804Z,32.63
2022-12-23T05:20:14.632Z,31.40
2022-12-23T05:21:16.577Z,30.33
2022-12-23T05:22:18.300Z,32.60
2022-12-23T05:23:20.038Z,32.85
2022-12-23T05:24:21.743Z,31.70
2022-12-23T05:25:23.468Z,30.52
2022-12-23T05:26:25.234Z,30.27
2022-12-23T05:27:26.982Z,30.95
2022-12-23T05:28:29.419Z,32.20
2022-12-23T05:29:31.143Z,28.85
2022-12-23T05:30:32.846Z,28.42
2022-12-23T05:31:34.605Z,28.30
2022-12-23T05:32:36.770Z,30.77
2022-12-23T05:33:39.256Z,35.47
2022-12-23T05:34:40.991Z,32.85
2022-12-23T05:35:42.759Z,50.42
2022-12-23T05:36:44.455Z,41.90
2022-12-23T05:37:46.440Z,38.60
2022-12-23T05:38:49.379Z,32.28
2022-12-23T05:39:51.159Z,28.73
2022-12-23T05:40:53.440Z,30.10
2022-12-23T05:41:55.169Z,26.00
2022-12-23T05:42:56.982Z,29.95
2022-12-23T05:43:58.732Z,27.80
2022-12-23T05:45:00.416Z,24.10
2022-12-23T05:46:02.172Z,27.45
2022-12-23T05:47:03.957Z,26.85
2022-12-23T05:48:05.861Z,30.25
2022-12-23T05:49:07.680Z,26.20
2022-12-23T05:50:09.803Z,27.38
2022-12-23T05:51:11.501Z,18.98
2022-12-23T05:52:13.217Z,19.95
2022-12-23T05:53:14.940Z,20.48
2022-12-23T05:54:16.714Z,17.83
2022-12-23T05:55:18.516Z,18.95
2022-12-23T05:56:20.240Z,20.05
2022-12-23T05:57:22.099Z,21.52
2022-12-23T05:58:24.141Z,20.30
2022-12-23T05:59:30.752Z,23.20
2022-12-23T06:00:33.757Z,26.13
2022-12-23T06:01:35.583Z,30.20
2022-12-23T06:02:37.558Z,31.13
2022-12-23T06:03:39.528Z,31.90
2022-12-23T06:04:41.434Z,33.65
2022-12-23T06:05:44.127Z,35.30
2022-12-23T06:06:45.830Z,33.45
2022-12-23T06:07:47.610Z,33.47
2022-12-23T06:08:52.057Z,33.28
2022-12-23T06:09:57.593Z,29.73
2022-12-23T06:10:59.994Z,33.25
2022-12-23T06:12:01.826Z,31.23
2022-12-23T06:13:03.556Z,31.58
2022-12-23T06:14:07.351Z,32.55
2022-12-23T06:15:09.594Z,29.10
2022-12-23T06:16:11.376Z,29.15
2022-12-23T06:17:13.111Z,26.92
2022-12-23T06:18:14.814Z,23.83
2022-12-23T06:19:16.570Z,26.65
2022-12-23T06:20:21.012Z,28.48
2022-12-23T06:21:23.198Z,28.58
2022-12-23T06:22:25.024Z,28.35
2022-12-23T06:23:26.720Z,27.48
2022-12-23T06:24:28.417Z,31.15
2022-12-23T06:25:30.189Z,29.02
2022-12-23T06:26:32.023Z,27.70
2022-12-23T06:27:33.747Z,28.25
2022-12-23T06:28:35.556Z,27.48
2022-12-23T06:29:37.264Z,28.92
2022-12-23T06:30:39.016Z,38.33
2022-12-23T06:31:40.780Z,38.35
2022-12-23T06:32:42.548Z,29.25
2022-12-23T06:33:44.331Z,29.88
2022-12-23T06:34:46.836Z,29.48
2022-12-23T06:35:48.666Z,28.90
2022-12-23T06:36:50.385Z,29.65
2022-12-23T06:37:55.182Z,32.47
2022-12-23T06:38:56.996Z,29.98
2022-12-23T06:39:58.762Z,30.23
2022-12-23T06:41:00.577Z,34.20
2022-12-23T06:42:02.254Z,33.00
2022-12-23T06:43:04.018Z,33.85
2022-12-23T06:44:06.021Z,35.85
2022-12-23T06:45:08.416Z,41.97
2022-12-23T06:46:10.174Z,34.47
2022-12-23T06:47:11.907Z,35.15
2022-12-23T06:48:13.694Z,34.28
2022-12-23T06:49:15.443Z,34.00
2022-12-23T06:50:17.210Z,34.67
2022-12-23T06:51:19.317Z,34.92
2022-12-23T06:52:23.177Z,29.55
2022-12-23T06:53:25.152Z,31.88
2022-12-23T06:54:26.869Z,33.60
2022-12-23T06:55:28.595Z,32.75
2022-12-23T06:56:30.388Z,30.88
2022-12-23T06:57:32.122Z,32.60
2022-12-23T06:58:34.036Z,33.22
2022-12-23T06:59:35.759Z,29.75
2022-12-23T07:00:37.501Z,32.05
2022-12-23T07:01:40.736Z,30.67
2022-12-23T07:02:42.742Z,27.70
2022-12-23T07:03:44.669Z,29.50
2022-12-23T07:04:46.552Z,23.70
2022-12-23T07:05:49.403Z,23.40
2022-12-23T07:06:51.119Z,22.77
2022-12-23T07:07:52.837Z,20.50
2022-12-23T07:08:54.600Z,23.30
2022-12-23T07:09:56.340Z,23.13
2022-12-23T07:11:02.303Z,21.13
2022-12-23T07:12:04.318Z,20.35
2022-12-23T07:13:06.072Z,19.35
2022-12-23T07:14:07.826Z,19.92
2022-12-23T07:15:10.057Z,21.80
2022-12-23T07:16:11.777Z,19.38
2022-12-23T07:17:13.618Z,20.10
2022-12-23T07:18:15.412Z,23.02
2022-12-23T07:19:17.182Z,21.73
2022-12-23T07:20:18.884Z,23.80
2022-12-23T07:21:28.989Z,42.35
2022-12-23T07:22:31.349Z,33.67
2022-12-23T07:23:33.068Z,31.63
2022-12-23T07:24:34.775Z,25.17
2022-12-23T07:25:36.467Z,31.77
2022-12-23T07:26:38.265Z,31.23
2022-12-23T07:27:39.949Z,29.73
2022-12-23T07:28:46.867Z,30.73
2022-12-23T07:29:48.595Z,29.08
2022-12-23T07:30:50.387Z,27.90
2022-12-23T07:31:53.211Z,27.52
2022-12-23T07:32:55.056Z,26.52
2022-12-23T07:33:56.763Z,24.77
2022-12-23T07:34:58.518Z,26.17
2022-12-23T07:36:00.581Z,26.92
2022-12-23T07:37:02.327Z,26.20
2022-12-23T07:38:04.192Z,24.23
2022-12-23T07:39:06.077Z,24.45
2022-12-23T07:40:10.112Z,26.40
2022-12-23T07:41:11.926Z,26.73
2022-12-23T07:42:43.293Z,28.55
2022-12-23T07:43:35.445Z,36.35
2022-12-23T07:44:37.161Z,31.33
2022-12-23T07:45:38.867Z,33.28
2022-12-23T07:46:40.736Z,34.90
2022-12-23T07:47:43.212Z,36.13
2022-12-23T07:48:44.918Z,35.70
2022-12-23T07:49:46.678Z,29.83
2022-12-23T07:50:48.579Z,29.02
2022-12-23T07:51:50.455Z,29.75
2022-12-23T07:52:52.968Z,29.85
2022-12-23T07:53:54.740Z,26.45
2022-12-23T07:54:56.449Z,26.52
2022-12-23T07:55:58.796Z,25.98
2022-12-23T07:57:00.490Z,25.08
2022-12-23T07:58:02.719Z,25.17
2022-12-23T07:59:04.454Z,29.08
2022-12-23T08:00:07.738Z,29.77
2022-12-23T08:01:09.663Z,35.55
2022-12-23T08:02:11.684Z,28.67
2022-12-23T08:03:13.771Z,29.73
2022-12-23T08:04:15.559Z,28.85
2022-12-23T08:05:17.551Z,26.92
2022-12-23T08:06:19.469Z,27.88
2022-12-23T08:07:21.179Z,27.08
2022-12-23T08:08:22.914Z,25.55
2022-12-23T08:09:24.654Z,24.30
2022-12-23T08:10:26.480Z,24.48
2022-12-23T08:11:28.187Z,25.17
2022-12-23T08:12:30.018Z,23.65
2022-12-23T08:13:34.039Z,22.40
2022-12-23T08:14:35.758Z,22.48
2022-12-23T08:15:37.458Z,22.88
2022-12-23T08:16:43.577Z,22.67
2022-12-23T08:17:46.068Z,21.45
2022-12-23T08:18:47.761Z,22.08
2022-12-23T08:19:49.711Z,23.13
2022-12-23T08:21:06.044Z,23.15
2022-12-23T08:22:07.745Z,22.13
2022-12-23T08:23:09.452Z,22.02
2022-12-23T08:24:11.168Z,39.95
2022-12-23T08:25:12.880Z,24.90
2022-12-23T08:26:17.101Z,24.08
2022-12-23T08:27:18.836Z,27.90
2022-12-23T08:28:20.585Z,32.95
2022-12-23T08:29:22.309Z,29.67
2022-12-23T08:30:24.059Z,27.58
2022-12-23T08:31:32.086Z,28.23
2022-12-23T08:32:33.866Z,26.08
2022-12-23T08:33:38.383Z,24.65
2022-12-23T08:34:40.180Z,24.13
2022-12-23T08:35:41.889Z,23.02
2022-12-23T08:36:43.601Z,22.77
2022-12-23T08:37:45.367Z,23.13
2022-12-23T08:38:47.405Z,21.58
2022-12-23T08:39:49.778Z,22.63
2022-12-23T08:40:51.490Z,21.63
2022-12-23T08:41:53.788Z,21.27
2022-12-23T08:42:55.523Z,22.10
2022-12-23T08:43:57.833Z,21.33
2022-12-23T08:45:01.098Z,22.08
2022-12-23T08:46:03.435Z,22.15
2022-12-23T08:47:05.280Z,22.63
2022-12-23T08:48:07.133Z,20.92
2022-12-23T08:49:09.582Z,21.90
2022-12-23T08:50:12.152Z,22.45
2022-12-23T08:51:16.848Z,21.13
2022-12-23T08:52:18.600Z,21.77
2022-12-23T08:53:20.306Z,21.80
2022-12-23T08:54:23.874Z,22.17
2022-12-23T08:55:25.725Z,23.20
2022-12-23T08:56:32.736Z,21.80
2022-12-23T08:57:34.593Z,20.90
2022-12-23T08:58:39.074Z,21.00
2022-12-23T08:59:40.850Z,21.73
2022-12-23T09:00:42.630Z,20.90
2022-12-23T09:01:44.664Z,21.70
2022-12-23T09:02:46.610Z,23.05
2022-12-23T09:03:48.790Z,21.85
2022-12-23T09:04:50.572Z,21.48
2022-12-23T09:05:52.276Z,22.20
2022-12-23T09:06:54.034Z,22.13
2022-12-23T09:07:55.842Z,22.38
2022-12-23T09:08:58.651Z,21.90
2022-12-23T09:10:00.430Z,22.35
2022-12-23T09:11:02.369Z,22.33
2022-12-23T09:12:04.678Z,22.08
2022-12-23T09:13:06.410Z,23.75
2022-12-23T09:14:10.330Z,22.33
2022-12-23T09:15:12.118Z,23.15
2022-12-23T09:16:14.378Z,22.75
2022-12-23T09:17:17.756Z,22.30
2022-12-23T09:18:19.692Z,22.80
2022-12-23T09:19:21.420Z,22.23
2022-12-23T09:20:23.149Z,23.65
2022-12-23T09:21:24.876Z,22.95
2022-12-23T09:22:26.597Z,23.60
2022-12-23T09:23:28.611Z,24.33
2022-12-23T09:24:30.466Z,23.88
2022-12-23T09:25:33.436Z,22.83
2022-12-23T09:26:35.161Z,21.95
2022-12-23T09:27:36.851Z,21.83
2022-12-23T09:28:39.849Z,21.40
2022-12-23T09:29:41.565Z,22.75
2022-12-23T09:30:43.345Z,21.52
2022-12-23T09:31:45.105Z,22.83
2022-12-23T09:32:46.923Z,22.23
2022-12-23T09:33:51.312Z,21.35
2022-12-23T09:34:53.071Z,20.90
2022-12-23T09:35:59.980Z,20.98
2022-12-23T09:37:03.051Z,20.95
2022-12-23T09:38:05.089Z,21.35
2022-12-23T09:39:06.799Z,23.58
2022-12-23T09:40:12.312Z,23.15
2022-12-23T09:42:01.636Z,23.15
2022-12-23T09:43:17.056Z,25.55
2022-12-23T09:44:32.571Z,25.42
2022-12-23T09:45:52.728Z,28.25
2022-12-23T09:46:58.714Z,28.02
2022-12-23T09:48:01.147Z,26.30
2022-12-23T09:49:05.455Z,27.00
2022-12-23T09:50:26.579Z,26.88
2022-12-23T09:51:30.727Z,25.83
2022-12-23T09:53:08.026Z,24.73
2022-12-23T09:54:29.072Z,27.23
2022-12-23T09:56:13.176Z,29.95
2022-12-23T09:57:17.493Z,27.40
2022-12-23T09:58:30.141Z,24.60
2022-12-23T10:00:18.639Z,22.20
2022-12-23T10:01:44.651Z,21.13
2022-12-23T10:02:59.065Z,21.05
2022-12-23T10:04:16.127Z,21.10
2022-12-23T10:05:28.047Z,20.75
2022-12-23T10:06:30.982Z,21.30
2022-12-23T10:07:51.641Z,19.95
2022-12-23T10:08:58.340Z,19.50
2022-12-23T10:10:08.229Z,20.50
2022-12-23T10:11:20.539Z,19.65
2022-12-23T10:12:45.236Z,20.13
2022-12-23T10:14:00.832Z,20.90
2022-12-23T10:15:16.830Z,20.30
2022-12-23T10:16:41.557Z,20.15
2022-12-23T10:17:44.718Z,20.15
2022-12-23T10:19:01.264Z,19.88
2022-12-23T10:20:06.581Z,21.40
2022-12-23T10:21:16.404Z,22.08
2022-12-23T10:22:44.171Z,20.30
2022-12-23T10:23:52.350Z,20.25
2022-12-23T10:24:57.878Z,20.35
2022-12-23T10:26:01.458Z,20.70
2022-12-23T10:27:12.670Z,20.45
2022-12-23T10:29:32.910Z,19.73
2022-12-23T10:32:17.737Z,20.50
2022-12-23T10:33:24.454Z,21.27
2022-12-23T10:34:47.365Z,19.90
2022-12-23T10:35:52.309Z,20.42
2022-12-23T10:37:07.554Z,21.67
2022-12-23T10:38:30.958Z,20.92
2022-12-23T10:39:41.022Z,21.60
2022-12-23T10:41:13.135Z,20.88
2022-12-23T10:42:20.765Z,20.55
2022-12-23T10:43:25.327Z,21.27
2022-12-23T10:44:57.773Z,22.20
2022-12-23T10:46:03.073Z,21.48
2022-12-23T10:47:19.810Z,20.85
2022-12-23T10:48:52.631Z,20.50
2022-12-23T10:50:12.522Z,19.65
2022-12-23T10:51:21.325Z,19.60
2022-12-23T10:52:27.488Z,19.70
2022-12-23T10:53:38.354Z,20.25
2022-12-23T10:54:42.318Z,20.60
2022-12-23T10:55:45.328Z,19.45
2022-12-23T10:56:47.643Z,20.45
2022-12-23T10:57:50.775Z,20.30
2022-12-23T10:58:59.529Z,20.92
2022-12-23T11:00:01.296Z,21.45
2022-12-23T11:01:14.929Z,20.23
2022-12-23T11:02:49.942Z,20.30
2022-12-23T11:04:07.615Z,20.85
2022-12-23T11:05:15.449Z,20.98
2022-12-23T11:06:17.339Z,20.60
2022-12-23T11:07:45.507Z,20.38
2022-12-23T11:08:48.283Z,20.30
2022-12-23T11:10:01.199Z,21.63
2022-12-23T11:11:03.402Z,21.67
2022-12-23T11:12:08.512Z,20.48
2022-12-23T11:13:10.289Z,21.58
2022-12-23T11:14:30.815Z,20.40
2022-12-23T11:15:38.922Z,21.00
2022-12-23T11:16:46.958Z,21.73
2022-12-23T11:18:00.708Z,21.08
2022-12-23T11:19:15.262Z,23.38
2022-12-23T11:20:19.205Z,22.83
2022-12-23T11:21:21.541Z,22.40
2022-12-23T11:22:26.407Z,20.48
2022-12-23T11:23:33.743Z,22.38
2022-12-23T11:24:41.330Z,22.23
2022-12-23T11:25:46.451Z,21.80
2022-12-23T11:26:58.607Z,21.60
2022-12-23T11:28:06.227Z,21.58
2022-12-23T11:29:12.799Z,26.08
2022-12-23T11:30:19.435Z,21.67
2022-12-23T11:31:32.603Z,22.33
2022-12-23T11:32:34.675Z,21.30
2022-12-23T11:33:40.174Z,21.60
2022-12-23T11:34:45.929Z,22.67
2022-12-23T11:35:47.720Z,22.42
2022-12-23T11:37:06.988Z,21.25
2022-12-23T11:38:14.341Z,22.45
2022-12-23T11:39:48.691Z,23.42
2022-12-23T11:40:50.482Z,25.10
2022-12-23T11:42:02.142Z,24.52
2022-12-23T11:43:11.860Z,24.92
2022-12-23T11:44:27.382Z,23.75
2022-12-23T11:45:33.191Z,24.25
2022-12-23T11:46:35.678Z,23.70
2022-12-23T11:47:41.703Z,23.55
2022-12-23T11:48:43.757Z,23.23
2022-12-23T11:49:57.618Z,23.38
2022-12-23T11:51:01.760Z,59.40
2022-12-23T11:52:06.492Z,30.90
2022-12-23T11:53:21.353Z,25.75
2022-12-23T11:54:23.074Z,26.38
2022-12-23T11:55:29.888Z,59.30
2022-12-23T11:56:38.926Z,52.38
2022-12-23T11:57:48.530Z,31.17
2022-12-23T11:58:55.162Z,28.02
2022-12-23T12:00:00.988Z,25.15
2022-12-23T12:01:14.819Z,26.75
2022-12-23T12:02:39.923Z,26.02
2022-12-23T12:03:51.286Z,25.08
2022-12-23T12:05:00.569Z,25.10
2022-12-23T12:06:06.995Z,25.17
2022-12-23T12:07:14.557Z,24.17
2022-12-23T12:08:21.384Z,24.73
2022-12-23T12:09:24.315Z,25.73
2022-12-23T12:10:29.265Z,23.95
2022-12-23T12:11:44.115Z,24.60
2022-12-23T12:12:49.954Z,24.05
2022-12-23T12:14:01.596Z,25.77
2022-12-23T12:15:03.768Z,23.55
2022-12-23T12:16:36.552Z,24.45
2022-12-23T12:17:47.129Z,26.00
2022-12-23T12:20:04.916Z,25.92
2022-12-23T12:21:14.434Z,26.02
2022-12-23T12:22:43.674Z,24.90
2022-12-23T12:24:08.319Z,24.75
2022-12-23T12:25:17.952Z,24.15
2022-12-23T12:26:33.127Z,24.90
2022-12-23T12:27:39.439Z,25.08
2022-12-23T12:28:44.760Z,23.30
2022-12-23T12:29:55.975Z,23.77
2022-12-23T12:32:15.855Z,22.58
2022-12-23T12:33:33.730Z,24.73
2022-12-23T12:35:13.831Z,24.58
2022-12-23T12:36:36.091Z,26.48
2022-12-23T12:37:51.584Z,27.30
2022-12-23T12:38:55.925Z,27.77
2022-12-23T12:40:03.677Z,27.08
2022-12-23T12:41:14.508Z,37.72
2022-12-23T12:42:26.910Z,36.38
2022-12-23T12:43:34.550Z,33.08
2022-12-23T12:45:10.408Z,29.95
2022-12-23T12:46:34.337Z,38.03
2022-12-23T12:48:02.104Z,41.55
2022-12-23T12:49:29.606Z,31.35
2022-12-23T12:50:34.739Z,28.15
2022-12-23T12:51:42.617Z,27.98
2022-12-23T12:52:44.727Z,28.70
2022-12-23T12:54:05.498Z,30.52
2022-12-23T12:56:32.988Z,30.55
2022-12-23T12:57:36.730Z,27.88
2022-12-23T12:58:40.497Z,29.42
2022-12-23T12:59:44.866Z,30.30
2022-12-23T13:01:12.016Z,31.95
2022-12-23T13:02:36.236Z,30.52
2022-12-23T13:04:05.746Z,31.13
2022-12-23T13:05:19.832Z,32.10
2022-12-23T13:06:34.606Z,30.35
2022-12-23T13:08:06.864Z,30.98
2022-12-23T13:09:27.194Z,28.35
2022-12-23T13:10:44.702Z,32.28
2022-12-23T13:12:01.159Z,37.58
2022-12-23T13:13:08.477Z,38.03
2022-12-23T13:14:27.447Z,36.88
2022-12-23T13:15:44.271Z,27.90
2022-12-23T13:17:21.497Z,24.45
2022-12-23T13:18:31.829Z,25.48
2022-12-23T13:19:51.024Z,24.67
2022-12-23T13:21:06.260Z,24.65
2022-12-23T13:22:07.908Z,24.77
2022-12-23T13:23:44.110Z,26.17
2022-12-23T13:24:54.376Z,26.98
2022-12-23T13:26:05.326Z,28.23
2022-12-23T13:27:14.999Z,28.95
2022-12-23T13:28:44.566Z,28.05
2022-12-23T13:30:01.513Z,29.17
2022-12-23T13:31:31.169Z,27.42
2022-12-23T13:33:14.932Z,33.50
2022-12-23T13:34:38.841Z,45.35
2022-12-23T13:35:56.293Z,34.22
2022-12-23T13:37:20.050Z,31.70
2022-12-23T13:38:55.492Z,31.55
2022-12-23T13:40:41.674Z,27.77
2022-12-23T13:41:49.319Z,30.05
2022-12-23T13:42:57.415Z,36.38
2022-12-23T13:44:01.558Z,48.03
2022-12-23T13:45:04.626Z,34.55
2022-12-23T13:46:22.279Z,32.72
2022-12-23T13:47:29.832Z,30.55
2022-12-23T13:49:00.119Z,28.20
2022-12-23T13:50:11.801Z,28.33
2022-12-23T13:51:47.893Z,28.70
2022-12-23T13:53:17.911Z,31.08
2022-12-23T13:54:44.118Z,29.92
2022-12-23T13:56:06.959Z,31.40
2022-12-23T13:57:46.825Z,32.05
2022-12-23T13:58:50.837Z,32.22
2022-12-23T14:00:06.017Z,31.75
2022-12-23T14:01:08.238Z,31.95
2022-12-23T14:02:37.731Z,32.88
2022-12-23T14:03:39.887Z,34.58
2022-12-23T14:04:59.314Z,36.80
2022-12-23T14:06:25.414Z,37.70
2022-12-23T14:07:30.521Z,38.35
2022-12-23T14:08:42.246Z,39.03
2022-12-23T14:09:47.817Z,38.08
2022-12-23T14:11:12.155Z,39.33
2022-12-23T14:12:27.288Z,43.17
2022-12-23T14:13:40.195Z,37.78
2022-12-23T14:15:10.434Z,37.83
2022-12-23T14:16:33.817Z,37.83
2022-12-23T14:17:50.000Z,39.88
2022-12-23T14:19:13.326Z,36.08
2022-12-23T14:20:33.592Z,34.55
2022-12-23T14:22:01.062Z,33.15
2022-12-23T14:23:21.648Z,32.47
2022-12-23T14:25:00.878Z,31.02
2022-12-23T14:26:26.836Z,30.58
2022-12-23T14:27:46.890Z,28.67
2022-12-23T14:28:54.338Z,27.70
2022-12-23T14:30:09.970Z,27.60
2022-12-23T14:31:36.751Z,28.65
2022-12-23T14:32:54.083Z,30.17
2022-12-23T14:34:23.010Z,34.53
2022-12-23T14:35:46.760Z,34.72
2022-12-23T14:37:16.024Z,30.27
2022-12-23T14:38:32.852Z,33.42
2022-12-23T14:39:34.723Z,44.45
2022-12-23T14:40:39.478Z,44.47
2022-12-23T14:41:53.290Z,40.80
2022-12-23T14:43:31.199Z,37.83
2022-12-23T14:44:35.905Z,28.25
2022-12-23T14:45:43.443Z,25.60
2022-12-23T14:46:45.185Z,24.02
2022-12-23T14:47:47.072Z,23.20
2022-12-23T14:48:48.729Z,24.52